createdAt,value
2023-05-04T00:01:18.522Z,10.20
2023-05-04T00:03:46.509Z,9.63
2023-05-04T00:06:14.489Z,6.83
2023-05-04T00:08:42.093Z,16.03
2023-05-04T00:11:09.701Z,8.67
2023-05-04T00:13:37.291Z,13.97
2023-05-04T00:16:08.519Z,7.40
2023-05-04T00:18:37.572Z,8.90
2023-05-04T00:21:05.207Z,16.53
2023-05-04T00:23:32.822Z,13.43
2023-05-04T00:26:00.616Z,8.23
2023-05-04T00:28:28.348Z,9.40
2023-05-04T00:30:56.751Z,14.10
2023-05-04T00:33:25.744Z,7.87
2023-05-04T00:35:53.382Z,11.73
2023-05-04T00:38:21.302Z,8.10
2023-05-04T00:40:49.005Z,13.00
2023-05-04T00:43:16.613Z,8.13
2023-05-04T00:45:44.283Z,10.33
2023-05-04T00:48:12.066Z,14.60
2023-05-04T00:50:41.806Z,11.23
2023-05-04T00:53:11.709Z,9.40
2023-05-04T00:55:41.020Z,8.80
2023-05-04T00:58:09.478Z,14.03
2023-05-04T01:00:37.382Z,9.80
2023-05-04T01:03:05.457Z,9.73
2023-05-04T01:05:37.214Z,10.47
2023-05-04T01:08:11.964Z,10.80
2023-05-04T01:10:46.198Z,9.60
2023-05-04T01:13:16.168Z,9.17
2023-05-04T01:15:44.186Z,8.17
2023-05-04T01:18:11.950Z,11.13
2023-05-04T01:20:39.558Z,12.80
2023-05-04T01:23:08.806Z,8.73
2023-05-04T01:25:58.321Z,10.93
2023-05-04T01:28:33.905Z,9.43
2023-05-04T01:31:02.636Z,8.10
2023-05-04T01:33:33.171Z,11.70
2023-05-04T01:36:01.362Z,10.07
2023-05-04T01:38:31.054Z,11.63
2023-05-04T01:40:58.654Z,10.20
2023-05-04T01:43:26.656Z,10.60
2023-05-04T01:45:54.332Z,10.77
2023-05-04T01:48:21.993Z,7.97
2023-05-04T01:50:49.613Z,9.60
2023-05-04T01:53:17.192Z,8.10
2023-05-04T01:55:46.168Z,8.53
2023-05-04T01:58:13.798Z,7.80
2023-05-04T02:00:41.819Z,12.10
2023-05-04T02:03:09.691Z,7.97
2023-05-04T02:05:37.449Z,8.20
2023-05-04T02:08:05.233Z,8.97
2023-05-04T02:10:32.910Z,8.83
2023-05-04T02:13:02.148Z,12.33
2023-05-04T02:15:29.804Z,8.87
2023-05-04T02:17:57.574Z,11.47
2023-05-04T02:20:25.366Z,8.50
2023-05-04T02:22:53.049Z,8.03
2023-05-04T02:25:20.969Z,9.20
2023-05-04T02:27:48.606Z,10.13
2023-05-04T02:30:17.728Z,10.73
2023-05-04T02:32:45.462Z,9.07
2023-05-04T02:35:13.503Z,7.83
2023-05-04T02:37:41.297Z,9.37
2023-05-04T02:40:09.979Z,8.97
2023-05-04T02:42:37.715Z,12.07
2023-05-04T02:45:07.430Z,10.50
2023-05-04T02:47:36.516Z,15.37
2023-05-04T02:50:04.612Z,9.20
2023-05-04T02:52:32.455Z,12.97
2023-05-04T02:55:00.651Z,10.83
2023-05-04T02:57:28.278Z,12.73
2023-05-04T02:59:55.871Z,10.07
2023-05-04T03:02:23.497Z,14.83
2023-05-04T03:04:52.513Z,10.90
2023-05-04T03:07:20.130Z,10.40
2023-05-04T03:09:48.140Z,11.37
2023-05-04T03:12:16.006Z,13.00
2023-05-04T03:14:43.616Z,10.17
2023-05-04T03:17:11.280Z,10.57
2023-05-04T03:19:38.999Z,14.50
2023-05-04T03:22:07.999Z,10.50
2023-05-04T03:24:36.990Z,12.47
2023-05-04T03:27:05.099Z,12.63
2023-05-04T03:29:32.711Z,12.53
2023-05-04T03:32:00.429Z,12.33
2023-05-04T03:34:28.062Z,11.13
2023-05-04T03:36:56.582Z,12.83
2023-05-04T03:39:25.598Z,13.13
2023-05-04T03:41:53.277Z,11.37
2023-05-04T03:44:20.908Z,10.37
2023-05-04T03:46:48.585Z,12.07
2023-05-04T03:49:16.215Z,12.50
2023-05-04T03:51:43.901Z,10.83
2023-05-04T03:54:11.592Z,12.00
2023-05-04T03:56:40.550Z,11.77
2023-05-04T03:59:08.179Z,11.63
2023-05-04T04:01:35.771Z,11.53
2023-05-04T04:04:04.026Z,15.63
2023-05-04T04:06:32.357Z,12.00
2023-05-04T04:08:59.946Z,15.03
2023-05-04T04:11:27.642Z,12.03
2023-05-04T04:13:56.882Z,11.53
2023-05-04T04:16:24.727Z,11.43
2023-05-04T04:18:52.421Z,16.00
2023-05-04T04:21:20.198Z,10.10
2023-05-04T04:23:47.952Z,10.67
2023-05-04T04:26:15.716Z,12.83
2023-05-04T04:28:44.759Z,10.90
2023-05-04T04:31:13.717Z,10.73
2023-05-04T04:33:41.335Z,12.93
2023-05-04T04:36:10.432Z,14.67
2023-05-04T04:38:39.676Z,11.13
2023-05-04T04:41:07.274Z,14.17
2023-05-04T04:43:34.972Z,11.90
2023-05-04T04:46:03.722Z,12.70
2023-05-04T04:48:32.748Z,12.10
2023-05-04T04:51:00.326Z,12.47
2023-05-04T04:53:28.337Z,16.93
2023-05-04T04:55:56.034Z,12.80
2023-05-04T04:58:23.604Z,12.77
2023-05-04T05:00:52.824Z,12.40
2023-05-04T05:03:20.477Z,12.50
2023-05-04T05:05:49.949Z,13.00
2023-05-04T05:08:17.611Z,14.50
2023-05-04T05:10:45.255Z,12.73
2023-05-04T05:13:13.026Z,12.23
2023-05-04T05:15:40.727Z,11.70
2023-05-04T05:18:08.349Z,10.90
2023-05-04T05:20:35.978Z,9.60
2023-05-04T05:23:05.279Z,9.20
2023-05-04T05:25:33.601Z,9.27
2023-05-04T05:28:02.156Z,9.07
2023-05-04T05:30:29.787Z,14.63
2023-05-04T05:32:57.477Z,9.77
2023-05-04T05:35:25.140Z,13.67
2023-05-04T05:37:52.953Z,8.60
2023-05-04T05:40:22.287Z,8.03
2023-05-04T05:42:50.228Z,8.83
2023-05-04T05:45:19.148Z,8.90
2023-05-04T05:47:46.755Z,7.33
2023-05-04T05:50:14.849Z,13.60
2023-05-04T05:52:42.467Z,8.47
2023-05-04T05:55:10.791Z,9.43
2023-05-04T05:57:39.811Z,6.87
2023-05-04T06:00:09.792Z,9.63
2023-05-04T06:02:37.810Z,7.37
2023-05-04T06:05:06.133Z,14.33
2023-05-04T06:07:33.767Z,9.10
2023-05-04T06:10:01.443Z,7.47
2023-05-04T06:12:29.196Z,8.63
2023-05-04T06:14:58.404Z,6.50
2023-05-04T06:17:26.237Z,7.87
2023-05-04T06:19:53.868Z,7.40
2023-05-04T06:22:21.436Z,8.20
2023-05-04T06:24:49.058Z,6.70
2023-05-04T06:27:17.344Z,6.63
2023-05-04T06:29:44.994Z,6.50
2023-05-04T06:32:14.046Z,7.63
2023-05-04T06:34:41.928Z,8.80
2023-05-04T06:37:09.577Z,9.03
2023-05-04T06:39:37.177Z,8.93
2023-05-04T06:42:04.939Z,7.83
2023-05-04T06:44:35.709Z,7.87
2023-05-04T06:47:03.464Z,9.10
2023-05-04T06:49:33.590Z,7.53
2023-05-04T06:52:01.407Z,9.00
2023-05-04T06:54:29.152Z,6.97
2023-05-04T06:56:56.761Z,8.17
2023-05-04T06:59:24.418Z,7.00
2023-05-04T07:01:52.109Z,7.03
2023-05-04T07:04:23.247Z,6.53
2023-05-04T07:06:52.442Z,8.63
2023-05-04T07:09:20.683Z,9.83
2023-05-04T07:11:49.133Z,6.17
2023-05-04T07:14:16.819Z,7.03
2023-05-04T07:16:44.698Z,6.63
2023-05-04T07:19:12.626Z,9.33
2023-05-04T07:21:40.266Z,11.17
2023-05-04T07:24:09.405Z,7.97
2023-05-04T07:26:37.035Z,6.03
2023-05-04T07:29:04.679Z,5.60
2023-05-04T07:31:32.343Z,6.07
2023-05-04T07:34:00.843Z,7.63
2023-05-04T07:36:28.451Z,8.23
2023-05-04T07:38:56.440Z,11.17
2023-05-04T07:41:26.331Z,8.83
2023-05-04T07:43:53.883Z,9.80
2023-05-04T07:46:21.483Z,7.37
2023-05-04T07:48:49.627Z,8.13
2023-05-04T07:51:17.523Z,7.70
2023-05-04T07:53:45.179Z,11.77
2023-05-04T07:56:14.294Z,15.70
2023-05-04T07:58:43.319Z,10.60
2023-05-04T08:01:10.929Z,7.20
2023-05-04T08:03:38.544Z,6.70
2023-05-04T08:06:06.329Z,8.00
2023-05-04T08:08:33.935Z,9.53
2023-05-04T08:11:15.815Z,6.67
2023-05-04T08:13:48.100Z,8.93
2023-05-04T08:16:16.263Z,10.17
2023-05-04T08:18:44.437Z,9.23
2023-05-04T08:21:12.022Z,7.77
2023-05-04T08:23:39.600Z,10.50
2023-05-04T08:26:07.187Z,8.40
2023-05-04T08:28:37.624Z,7.60
2023-05-04T08:31:07.683Z,6.97
2023-05-04T08:33:35.501Z,7.97
2023-05-04T08:36:04.155Z,6.17
2023-05-04T08:38:31.851Z,8.80
2023-05-04T08:41:02.044Z,7.03
2023-05-04T08:43:30.054Z,8.80
2023-05-04T08:45:57.993Z,7.30
2023-05-04T08:48:31.383Z,7.50
2023-05-04T08:50:59.524Z,7.70
2023-05-04T08:53:28.093Z,9.37
2023-05-04T08:55:57.455Z,10.90
2023-05-04T08:58:27.678Z,7.70
2023-05-04T09:00:56.743Z,11.67
2023-05-04T09:03:25.083Z,7.57
2023-05-04T09:05:54.411Z,14.93
2023-05-04T09:08:22.214Z,8.43
2023-05-04T09:10:49.813Z,6.53
2023-05-04T09:13:17.991Z,16.97
2023-05-04T09:15:55.152Z,17.17
2023-05-04T09:18:23.083Z,14.10
2023-05-04T09:20:50.921Z,7.40
2023-05-04T09:23:22.422Z,9.40
2023-05-04T09:25:51.851Z,8.43
2023-05-04T09:28:21.486Z,6.50
2023-05-04T09:30:49.404Z,7.47
2023-05-04T09:33:17.331Z,6.97
2023-05-04T09:35:45.423Z,7.27
2023-05-04T09:38:13.021Z,8.00
2023-05-04T09:40:43.263Z,8.60
2023-05-04T09:43:13.338Z,9.37
2023-05-04T09:45:42.054Z,13.60
2023-05-04T09:48:17.320Z,7.13
2023-05-04T09:50:55.985Z,9.63
2023-05-04T09:53:25.100Z,9.17
2023-05-04T09:56:05.702Z,9.30
2023-05-04T09:58:35.722Z,12.43
2023-05-04T10:01:03.536Z,8.43
2023-05-04T10:03:31.673Z,7.87
2023-05-04T10:06:00.454Z,9.53
2023-05-04T10:08:29.176Z,11.47
2023-05-04T10:10:58.585Z,9.07
2023-05-04T10:13:26.687Z,11.90
2023-05-04T10:16:05.711Z,9.03
2023-05-04T10:18:47.390Z,9.27
2023-05-04T10:21:30.863Z,9.47
2023-05-04T10:24:31.508Z,11.20
2023-05-04T10:27:19.643Z,10.30
2023-05-04T10:29:50.422Z,10.40
2023-05-04T10:32:19.003Z,13.83
2023-05-04T10:34:46.780Z,12.63
2023-05-04T10:37:19.069Z,10.07
2023-05-04T10:39:53.729Z,10.07
2023-05-04T10:42:23.112Z,11.20
2023-05-04T10:44:52.455Z,10.07
2023-05-04T10:47:29.792Z,11.77
2023-05-04T10:50:04.897Z,12.20
2023-05-04T10:52:33.474Z,12.17
2023-05-04T10:55:02.511Z,12.23
2023-05-04T10:57:31.598Z,13.10
2023-05-04T10:59:59.883Z,10.37
2023-05-04T11:02:30.338Z,10.00
2023-05-04T11:05:01.692Z,9.07
2023-05-04T11:07:36.711Z,10.37
2023-05-04T11:10:05.187Z,13.13
2023-05-04T11:12:34.209Z,13.63
2023-05-04T11:15:06.965Z,12.07
2023-05-04T11:17:34.790Z,8.97
2023-05-04T11:20:02.719Z,10.97
2023-05-04T11:22:30.341Z,10.60
2023-05-04T11:24:58.096Z,9.63
2023-05-04T11:27:27.557Z,9.57
2023-05-04T11:29:57.931Z,9.50
2023-05-04T11:32:35.529Z,9.77
2023-05-04T11:35:04.242Z,10.70
2023-05-04T11:37:32.585Z,10.40
2023-05-04T11:40:00.591Z,12.03
2023-05-04T11:42:28.245Z,8.93
2023-05-04T11:44:57.370Z,9.87
2023-05-04T11:47:26.441Z,8.77
2023-05-04T11:49:54.326Z,12.53
2023-05-04T11:52:25.843Z,10.80
2023-05-04T11:54:57.132Z,9.00
2023-05-04T11:57:24.769Z,9.27
2023-05-04T11:59:52.433Z,8.20
2023-05-04T12:02:21.495Z,9.60
2023-05-04T12:04:49.236Z,8.73
2023-05-04T12:07:17.074Z,9.57
2023-05-04T12:09:45.942Z,7.97
2023-05-04T12:12:13.565Z,8.37
2023-05-04T12:14:48.466Z,9.63
2023-05-04T12:17:16.343Z,9.37
2023-05-04T12:19:57.378Z,13.17
2023-05-04T12:22:29.496Z,9.40
2023-05-04T12:24:58.670Z,9.87
2023-05-04T12:27:26.371Z,8.57
2023-05-04T12:29:54.824Z,9.37
2023-05-04T12:32:22.507Z,8.50
2023-05-04T12:34:50.224Z,9.63
2023-05-04T12:37:19.186Z,7.63
2023-05-04T12:39:47.272Z,8.67
2023-05-04T12:42:14.828Z,7.40
2023-05-04T12:44:42.472Z,11.50
2023-05-04T12:47:10.216Z,8.07
2023-05-04T12:49:37.781Z,9.93
2023-05-04T12:52:05.556Z,12.17
2023-05-04T12:54:34.550Z,8.03
2023-05-04T12:57:03.436Z,7.93
2023-05-04T12:59:31.014Z,9.57
2023-05-04T13:01:58.654Z,11.00
2023-05-04T13:04:26.278Z,7.10
2023-05-04T13:06:53.983Z,10.57
2023-05-04T13:09:21.689Z,8.17
2023-05-04T13:11:50.709Z,15.37
2023-05-04T13:14:18.389Z,11.00
2023-05-04T13:16:45.947Z,13.07
2023-05-04T13:19:13.605Z,10.40
2023-05-04T13:21:41.222Z,16.07
2023-05-04T13:24:09.158Z,18.33
2023-05-04T13:26:37.145Z,22.43
2023-05-04T13:29:06.070Z,24.80
2023-05-04T13:31:33.754Z,37.10
2023-05-04T13:34:01.485Z,26.80
2023-05-04T13:36:29.108Z,34.97
2023-05-04T13:38:56.676Z,8.53
2023-05-04T13:41:24.538Z,9.53
2023-05-04T13:43:52.136Z,8.50
2023-05-04T13:46:21.353Z,10.20
2023-05-04T13:48:48.936Z,7.07
2023-05-04T13:51:16.599Z,7.77
2023-05-04T13:53:44.162Z,9.10
2023-05-04T13:56:11.965Z,11.00
2023-05-04T13:58:39.577Z,8.80
2023-05-04T14:01:07.341Z,11.10
2023-05-04T14:03:36.326Z,11.63
2023-05-04T14:06:04.034Z,8.10
2023-05-04T14:08:31.653Z,6.30
2023-05-04T14:10:59.506Z,9.93
2023-05-04T14:13:27.316Z,7.50
2023-05-04T14:15:55.150Z,7.27
2023-05-04T14:18:22.775Z,7.30
2023-05-04T14:20:51.737Z,7.50
2023-05-04T14:23:19.319Z,7.93
2023-05-04T14:25:51.343Z,6.47
2023-05-04T14:28:19.431Z,8.63
2023-05-04T14:30:47.054Z,10.67
2023-05-04T14:33:14.792Z,8.43
2023-05-04T14:35:44.118Z,7.87
2023-05-04T14:38:14.207Z,7.80
2023-05-04T14:40:41.955Z,10.10
2023-05-04T14:43:09.590Z,6.07
2023-05-04T14:45:37.577Z,8.43
2023-05-04T14:48:05.727Z,6.90
2023-05-04T14:50:33.397Z,7.40
2023-05-04T14:53:00.991Z,6.30
2023-05-04T14:55:31.478Z,10.10
2023-05-04T14:57:59.363Z,11.10
2023-05-04T15:00:27.062Z,9.67
2023-05-04T15:02:54.784Z,8.90
2023-05-04T15:05:22.492Z,11.17
2023-05-04T15:07:50.090Z,15.00
2023-05-04T15:10:17.701Z,8.70
2023-05-04T15:12:46.667Z,8.23
2023-05-04T15:15:14.360Z,8.80
2023-05-04T15:17:42.061Z,9.60
2023-05-04T15:20:11.000Z,9.23
2023-05-04T15:22:38.733Z,8.00
2023-05-04T15:25:06.898Z,10.97
2023-05-04T15:27:34.518Z,6.87
2023-05-04T15:30:03.761Z,12.87
2023-05-04T15:32:31.553Z,15.50
2023-05-04T15:35:07.918Z,11.83
2023-05-04T15:37:35.931Z,8.50
2023-05-04T15:40:04.639Z,8.80
2023-05-04T15:42:32.390Z,11.40
2023-05-04T15:45:00.009Z,10.60
2023-05-04T15:47:29.065Z,9.10
2023-05-04T15:49:56.695Z,7.10
2023-05-04T15:52:24.826Z,9.13
2023-05-04T15:54:52.836Z,6.27
2023-05-04T15:57:20.479Z,6.20
2023-05-04T15:59:49.596Z,9.20
2023-05-04T16:02:17.317Z,8.50
2023-05-04T16:04:46.583Z,11.97
2023-05-04T16:07:14.460Z,8.77
2023-05-04T16:09:42.077Z,10.90
2023-05-04T16:12:10.603Z,11.20
2023-05-04T16:14:38.263Z,7.90
2023-05-04T16:17:05.931Z,9.57
2023-05-04T16:19:33.528Z,10.03
2023-05-04T16:22:02.552Z,14.30
2023-05-04T16:24:30.165Z,7.60
2023-05-04T16:26:57.764Z,6.93
2023-05-04T16:29:25.737Z,7.03
2023-05-04T16:31:53.355Z,6.43
2023-05-04T16:34:21.026Z,9.30
2023-05-04T16:36:48.988Z,11.30
2023-05-04T16:39:18.734Z,9.63
2023-05-04T16:41:48.196Z,6.00
2023-05-04T16:44:16.097Z,7.83
2023-05-04T16:46:43.777Z,6.93
2023-05-04T16:49:12.501Z,7.00
2023-05-04T16:51:42.899Z,7.70
2023-05-04T16:54:10.976Z,7.90
2023-05-04T16:56:40.298Z,10.50
2023-05-04T16:59:07.906Z,12.60
2023-05-04T17:01:36.030Z,10.80
2023-05-04T17:04:03.883Z,9.40
2023-05-04T17:06:31.654Z,10.90
2023-05-04T17:08:59.246Z,8.67
2023-05-04T17:11:27.285Z,9.07
2023-05-04T17:13:56.439Z,10.83
2023-05-04T17:16:24.338Z,12.63
2023-05-04T17:18:52.078Z,13.10
2023-05-04T17:21:19.741Z,10.13
2023-05-04T17:23:47.365Z,7.53
2023-05-04T17:26:15.784Z,9.27
2023-05-04T17:28:43.408Z,9.97
2023-05-04T17:31:13.369Z,9.50
2023-05-04T17:33:41.092Z,8.80
2023-05-04T17:36:11.856Z,5.20
2023-05-04T17:38:41.381Z,8.17
2023-05-04T17:41:09.819Z,6.37
2023-05-04T17:43:38.062Z,7.13
2023-05-04T17:46:05.933Z,9.17
2023-05-04T17:48:36.296Z,5.70
2023-05-04T17:51:04.522Z,6.50
2023-05-04T17:53:32.217Z,5.80
2023-05-04T17:55:59.914Z,8.60
2023-05-04T17:58:27.653Z,5.90
2023-05-04T18:00:55.341Z,5.07
2023-05-04T18:03:23.331Z,11.30
2023-05-04T18:05:52.447Z,5.20
2023-05-04T18:08:20.226Z,8.37
2023-05-04T18:10:48.509Z,4.83
2023-05-04T18:13:16.318Z,4.50
2023-05-04T18:15:44.105Z,3.73
2023-05-04T18:18:11.866Z,5.50
2023-05-04T18:20:39.568Z,8.80
2023-05-04T18:23:08.604Z,5.23
2023-05-04T18:25:37.879Z,3.43
2023-05-04T18:28:07.310Z,3.70
2023-05-04T18:30:34.945Z,3.57
2023-05-04T18:33:02.547Z,5.00
2023-05-04T18:35:30.210Z,3.67
2023-05-04T18:37:57.819Z,3.93
2023-05-04T18:40:26.898Z,3.77
2023-05-04T18:42:54.530Z,3.90
2023-05-04T18:45:22.170Z,4.50
2023-05-04T18:47:49.753Z,3.70
2023-05-04T18:50:17.596Z,3.67
2023-05-04T18:52:45.352Z,3.77
2023-05-04T18:55:12.994Z,4.37
2023-05-04T18:57:41.947Z,4.47
2023-05-04T19:00:11.593Z,10.17
2023-05-04T19:02:39.261Z,5.40
2023-05-04T19:05:07.166Z,5.30
2023-05-04T19:07:34.840Z,7.67
2023-05-04T19:10:02.511Z,4.30
2023-05-04T19:12:30.117Z,4.17
2023-05-04T19:14:59.201Z,6.73
2023-05-04T19:17:27.334Z,4.30
2023-05-04T19:19:54.948Z,4.33
2023-05-04T19:22:22.542Z,3.63
2023-05-04T19:24:51.938Z,4.13
2023-05-04T19:27:19.521Z,4.17
2023-05-04T19:29:47.987Z,4.43
2023-05-04T19:32:24.517Z,4.10
2023-05-04T19:34:52.730Z,4.47
2023-05-04T19:37:20.378Z,4.10
2023-05-04T19:39:48.054Z,3.77
2023-05-04T19:42:16.066Z,4.20
2023-05-04T19:44:44.342Z,4.20
2023-05-04T19:47:12.641Z,4.70
2023-05-04T19:49:41.819Z,5.23
2023-05-04T19:52:09.594Z,4.37
2023-05-04T19:54:38.254Z,4.30
2023-05-04T19:57:05.996Z,4.03
2023-05-04T19:59:33.846Z,3.70
2023-05-04T20:02:01.739Z,4.23
2023-05-04T20:04:29.391Z,5.33
2023-05-04T20:06:58.403Z,4.33
2023-05-04T20:09:26.650Z,5.17
2023-05-04T20:11:54.208Z,4.40
2023-05-04T20:14:21.832Z,3.97
2023-05-04T20:16:49.469Z,4.30
2023-05-04T20:19:17.135Z,4.23
2023-05-04T20:21:44.782Z,4.40
2023-05-04T20:24:13.940Z,5.23
2023-05-04T20:26:41.653Z,5.27
2023-05-04T20:29:09.270Z,11.37
2023-05-04T20:31:37.087Z,4.57
2023-05-04T20:34:04.717Z,4.10
2023-05-04T20:36:33.239Z,4.10
2023-05-04T20:39:02.428Z,7.43
2023-05-04T20:41:32.304Z,4.30
2023-05-04T20:44:00.192Z,5.37
2023-05-04T20:46:27.968Z,4.37
2023-05-04T20:48:55.660Z,4.67
2023-05-04T20:51:23.351Z,7.93
2023-05-04T20:53:50.981Z,4.23
2023-05-04T20:56:18.684Z,4.23
2023-05-04T20:58:48.072Z,7.23
2023-05-04T21:01:15.696Z,6.80
2023-05-04T21:03:43.848Z,4.57
2023-05-04T21:06:12.153Z,5.87
2023-05-04T21:08:39.916Z,4.60
2023-05-04T21:11:07.764Z,6.47
2023-05-04T21:13:35.436Z,4.47
2023-05-04T21:16:04.678Z,4.10
2023-05-04T21:18:32.281Z,5.97
2023-05-04T21:20:59.893Z,7.60
2023-05-04T21:23:27.619Z,5.30
2023-05-04T21:26:01.397Z,4.30
2023-05-04T21:28:29.205Z,4.73
2023-05-04T21:30:56.981Z,5.23
2023-05-04T21:33:25.988Z,6.40
2023-05-04T21:35:53.672Z,4.87
2023-05-04T21:38:22.286Z,5.33
2023-05-04T21:40:50.542Z,6.60
2023-05-04T21:43:18.181Z,7.93
2023-05-04T21:45:46.429Z,4.90
2023-05-04T21:48:14.117Z,7.33
2023-05-04T21:50:43.024Z,6.20
2023-05-04T21:53:11.204Z,8.57
2023-05-04T21:55:38.786Z,7.73
2023-05-04T21:58:06.354Z,6.07
2023-05-04T22:00:34.065Z,7.80
2023-05-04T22:03:01.774Z,5.07
2023-05-04T22:05:29.402Z,7.30
2023-05-04T22:07:58.438Z,7.23
2023-05-04T22:10:26.057Z,10.97
2023-05-04T22:12:53.795Z,6.73
2023-05-04T22:15:21.380Z,6.47
2023-05-04T22:17:49.398Z,7.43
2023-05-04T22:20:17.624Z,5.70
2023-05-04T22:22:45.554Z,5.77
2023-05-04T22:25:14.819Z,7.03
2023-05-04T22:27:42.449Z,5.80
2023-05-04T22:30:11.124Z,5.03
2023-05-04T22:32:38.747Z,7.10
2023-05-04T22:35:07.147Z,5.40
2023-05-04T22:37:34.797Z,6.77
2023-05-04T22:40:04.314Z,5.83
2023-05-04T22:42:33.490Z,5.23
2023-05-04T22:45:01.093Z,5.80
2023-05-04T22:47:28.744Z,7.47
2023-05-04T22:49:56.463Z,5.67
2023-05-04T22:52:24.686Z,7.00
2023-05-04T22:54:52.883Z,9.50
2023-05-04T22:57:20.746Z,5.23
2023-05-04T22:59:49.677Z,5.23
2023-05-04T23:02:17.345Z,5.73
2023-05-04T23:04:45.283Z,6.63
2023-05-04T23:07:12.937Z,8.97
2023-05-04T23:09:43.236Z,5.77
2023-05-04T23:12:10.882Z,4.30
2023-05-04T23:14:38.705Z,5.20
2023-05-04T23:17:07.900Z,5.43
2023-05-04T23:19:35.768Z,4.90
2023-05-04T23:22:03.574Z,6.13
2023-05-04T23:24:31.186Z,4.90
2023-05-04T23:26:58.816Z,6.03
2023-05-04T23:29:26.726Z,11.50
2023-05-04T23:31:54.539Z,5.80
2023-05-04T23:34:23.683Z,6.13
2023-05-04T23:36:53.635Z,6.20
2023-05-04T23:39:21.271Z,5.90
2023-05-04T23:41:49.061Z,5.73
2023-05-04T23:44:17.386Z,5.97
2023-05-04T23:46:44.986Z,7.50
2023-05-04T23:49:12.825Z,6.77
2023-05-04T23:51:41.761Z,6.53
2023-05-04T23:54:09.367Z,7.87
2023-05-04T23:56:37.000Z,6.20
2023-05-04T23:59:04.726Z,11.13
